Time;durP1;ratioP1;P1;durP2;ratioP2;P2;SDS_P1;SDS_P2;PMS_P1;PMS_P2;Temp;Humidity;BMP_temperature;BMP_pressure;BME280_temperature;BME280_humidity;BME280_pressure;Samples;Min_cycle;Max_cycle;Signal;HPM_P1;HPM_P2
2022/09/07 00:02:10;;;;;;;;;;;19.50;99.90;;;;;;4982535;28;19929;-82
2022/09/07 00:04:36;;;;;;;;;;;19.50;99.90;;;;;;4982922;28;19934;-82
2022/09/07 00:07:01;;;;;;;;;;;19.50;99.90;;;;;;4983010;28;20257;-82
2022/09/07 00:09:27;;;;;;;;;;;19.50;99.90;;;;;;4982435;28;19933;-82
2022/09/07 00:11:53;;;;;;;;;;;19.40;99.90;;;;;;4963693;28;19926;-81
2022/09/07 00:14:19;;;;;;;;;;;19.40;99.90;;;;;;4963013;28;19965;-81
2022/09/07 00:16:44;;;;;;;;;;;19.40;99.90;;;;;;4962579;28;19965;-81
2022/09/07 00:19:10;;;;;;;;;;;19.30;99.90;;;;;;4963972;28;19930;-81
2022/09/07 00:21:36;;;;;;;;;;;19.30;99.90;;;;;;4947766;28;19953;-81
2022/09/07 00:24:01;;;;;;;;;;;19.30;99.90;;;;;;4981977;28;20292;-81
2022/09/07 00:26:28;;;;;;;;;;;19.20;99.90;;;;;;4987375;28;20040;-81
2022/09/07 00:28:58;;;;;;;;;;;19.20;99.90;;;;;;4978197;28;19922;-81
2022/09/07 00:31:24;;;;;;;;;;;19.20;99.90;;;;;;4967573;28;19926;-82
2022/09/07 00:33:50;;;;;;;;;;;19.20;99.90;;;;;;4966123;28;20384;-82
2022/09/07 00:36:17;;;;;;;;;;;19.10;99.90;;;;;;4984887;28;20004;-82
2022/09/07 00:38:42;;;;;;;;;;;19.10;99.90;;;;;;4986668;28;19926;-82
2022/09/07 00:41:08;;;;;;;;;;;19.00;99.90;;;;;;4973024;28;19929;-81
2022/09/07 00:43:36;;;;;;;;;;;19.00;99.90;;;;;;4966992;28;20269;-81
2022/09/07 00:46:02;;;;;;;;;;;19.00;99.90;;;;;;4967157;28;19949;-81
2022/09/07 00:48:31;;;;;;;;;;;18.90;99.90;;;;;;4967054;28;20076;-81
2022/09/07 00:50:59;;;;;;;;;;;19.00;99.90;;;;;;4967731;28;19926;-81
2022/09/07 00:53:27;;;;;;;;;;;18.90;99.90;;;;;;4967230;28;19932;-81
2022/09/07 00:55:53;;;;;;;;;;;18.90;99.90;;;;;;4966726;28;19953;-82
2022/09/07 00:58:20;;;;;;;;;;;18.90;99.90;;;;;;4966730;28;20353;-82
2022/09/07 01:00:47;;;;;;;;;;;18.80;99.90;;;;;;4966759;28;19934;-81
2022/09/07 01:03:15;;;;;;;;;;;18.70;99.90;;;;;;4966211;28;20009;-81
2022/09/07 01:05:42;;;;;;;;;;;18.70;99.90;;;;;;4981256;28;19926;-81
2022/09/07 01:08:08;;;;;;;;;;;18.60;99.90;;;;;;4967684;28;20385;-81
2022/09/07 01:10:34;;;;;;;;;;;18.60;99.90;;;;;;4966443;28;20419;-82
2022/09/07 01:13:00;;;;;;;;;;;18.50;99.90;;;;;;4992942;23;19965;-82
2022/09/07 01:15:42;;;;;;;;;;;18.40;99.90;;;;;;4985550;28;19933;-81
2022/09/07 01:18:10;;;;;;;;;;;18.30;99.90;;;;;;4985492;28;19926;-81
2022/09/07 01:20:44;;;;;;;;;;;18.30;99.90;;;;;;4986209;28;19944;-81
2022/09/07 01:23:10;;;;;;;;;;;18.30;99.90;;;;;;4975057;28;19936;-82
2022/09/07 01:25:35;;;;;;;;;;;18.30;99.90;;;;;;4966778;28;19926;-82
2022/09/07 01:28:06;;;;;;;;;;;18.20;99.90;;;;;;4967155;28;19949;-82
2022/09/07 01:30:35;;;;;;;;;;;18.00;99.90;;;;;;4966569;28;19933;-83
2022/09/07 01:33:09;;;;;;;;;;;17.90;99.90;;;;;;4964988;28;19933;-83
2022/09/07 01:35:49;;;;;;;;;;;17.80;99.90;;;;;;4978446;28;20012;-83
2022/09/07 01:38:24;;;;;;;;;;;17.80;99.90;;;;;;4966633;28;20053;-83
2022/09/07 01:40:55;;;;;;;;;;;17.70;99.90;;;;;;4966289;28;19930;-83
2022/09/07 01:43:33;;;;;;;;;;;17.60;99.90;;;;;;4967937;28;19933;-82
2022/09/07 01:46:00;;;;;;;;;;;17.60;99.90;;;;;;4984549;28;19965;-81
2022/09/07 01:48:25;;;;;;;;;;;17.50;99.90;;;;;;4985319;28;19925;-82
2022/09/07 01:50:54;;;;;;;;;;;17.40;99.90;;;;;;4982396;28;19960;-82
2022/09/07 01:53:23;;;;;;;;;;;17.40;99.90;;;;;;4966405;28;19926;-83
2022/09/07 01:55:51;;;;;;;;;;;17.40;99.90;;;;;;4964733;28;19937;-81
2022/09/07 01:58:46;;;;;;;;;;;17.30;99.90;;;;;;4966109;28;19948;-81
2022/09/07 02:01:14;;;;;;;;;;;17.30;99.90;;;;;;4951794;28;19926;-82
2022/09/07 02:04:06;;;;;;;;;;;17.30;99.90;;;;;;4965230;28;19926;-81
2022/09/07 02:06:32;;;;;;;;;;;17.30;99.90;;;;;;4960988;28;20092;-81
2022/09/07 02:08:59;;;;;;;;;;;17.30;99.90;;;;;;4966236;28;19929;-81
2022/09/07 02:11:33;;;;;;;;;;;17.40;99.90;;;;;;4981246;28;20406;-81
2022/09/07 02:14:02;;;;;;;;;;;17.30;99.90;;;;;;4984011;28;19932;-81
2022/09/07 02:16:28;;;;;;;;;;;17.20;99.90;;;;;;4983873;28;20424;-81
2022/09/07 02:19:00;;;;;;;;;;;17.20;99.90;;;;;;4985463;28;19932;-82
2022/09/07 02:21:29;;;;;;;;;;;17.10;99.90;;;;;;4984665;28;19926;-81
2022/09/07 02:24:03;;;;;;;;;;;17.10;99.90;;;;;;4985337;28;19929;-81
2022/09/07 02:26:29;;;;;;;;;;;17.20;99.90;;;;;;4985096;28;19957;-81
2022/09/07 02:28:55;;;;;;;;;;;17.10;99.90;;;;;;4983696;28;19932;-80
2022/09/07 02:31:21;;;;;;;;;;;17.10;99.90;;;;;;4983800;28;20288;-80
2022/09/07 02:33:46;;;;;;;;;;;17.10;99.90;;;;;;4983664;28;19979;-81
2022/09/07 02:36:13;;;;;;;;;;;17.10;99.90;;;;;;4980077;28;19957;-81
2022/09/07 02:38:39;;;;;;;;;;;17.10;99.90;;;;;;4976962;28;19980;-81
2022/09/07 02:41:05;;;;;;;;;;;17.10;99.90;;;;;;4971998;28;19925;-81
2022/09/07 02:43:31;;;;;;;;;;;17.20;99.90;;;;;;4964906;28;19949;-81
2022/09/07 02:45:56;;;;;;;;;;;17.20;99.90;;;;;;4965300;28;19926;-81
2022/09/07 02:48:34;;;;;;;;;;;17.10;99.90;;;;;;4963279;28;19929;-81
2022/09/07 02:51:18;;;;;;;;;;;17.20;99.90;;;;;;4963887;28;19932;-80
2022/09/07 02:53:51;;;;;;;;;;;17.20;99.90;;;;;;4965028;28;20343;-80
2022/09/07 02:56:17;;;;;;;;;;;17.10;99.90;;;;;;4964678;28;19930;-80
2022/09/07 02:58:42;;;;;;;;;;;17.20;99.90;;;;;;4964822;28;19933;-80
2022/09/07 03:01:18;;;;;;;;;;;17.20;99.90;;;;;;4964295;28;20380;-80
2022/09/07 03:03:54;;;;;;;;;;;17.10;99.90;;;;;;4963623;28;19926;-80
2022/09/07 03:06:25;;;;;;;;;;;17.10;99.90;;;;;;4967013;28;19930;-80
2022/09/07 03:08:53;;;;;;;;;;;17.20;99.90;;;;;;4983836;28;19922;-80
2022/09/07 03:11:18;;;;;;;;;;;17.20;99.90;;;;;;4984068;28;20498;-80
2022/09/07 03:13:44;;;;;;;;;;;17.20;99.90;;;;;;4983632;28;19926;-80
2022/09/07 03:16:13;;;;;;;;;;;17.10;99.90;;;;;;4981881;28;19926;-80
2022/09/07 03:18:39;;;;;;;;;;;17.10;99.90;;;;;;4983942;28;19926;-80
2022/09/07 03:21:04;;;;;;;;;;;17.10;99.90;;;;;;4982432;28;20406;-80
2022/09/07 03:23:30;;;;;;;;;;;17.10;99.90;;;;;;4983614;28;19932;-80
2022/09/07 03:25:55;;;;;;;;;;;17.10;99.90;;;;;;4984310;28;19962;-80
2022/09/07 03:28:21;;;;;;;;;;;17.10;99.90;;;;;;4983662;28;19980;-80
2022/09/07 03:30:46;;;;;;;;;;;17.20;99.90;;;;;;4983810;28;19926;-80
2022/09/07 03:33:14;;;;;;;;;;;17.10;99.90;;;;;;4981190;28;19981;-79
2022/09/07 03:35:41;;;;;;;;;;;17.10;99.90;;;;;;4970617;28;19926;-79
2022/09/07 03:38:07;;;;;;;;;;;17.10;99.90;;;;;;4964390;28;19982;-79
2022/09/07 03:40:32;;;;;;;;;;;17.10;99.90;;;;;;4963835;28;19972;-79
2022/09/07 03:42:58;;;;;;;;;;;17.10;99.90;;;;;;4964614;28;20424;-80
2022/09/07 03:45:23;;;;;;;;;;;17.10;99.90;;;;;;4964461;28;19949;-79
2022/09/07 03:47:49;;;;;;;;;;;17.10;99.90;;;;;;4963150;28;19938;-79
2022/09/07 03:50:15;;;;;;;;;;;17.20;99.90;;;;;;4964395;28;19926;-79
2022/09/07 03:52:40;;;;;;;;;;;17.20;99.90;;;;;;4964064;28;19933;-80
2022/09/07 03:55:06;;;;;;;;;;;17.20;99.90;;;;;;4976535;28;20319;-80
2022/09/07 03:57:32;;;;;;;;;;;17.10;99.90;;;;;;4985461;28;19925;-79
2022/09/07 03:59:57;;;;;;;;;;;17.20;99.90;;;;;;4981667;28;19926;-80
2022/09/07 04:02:23;;;;;;;;;;;17.20;99.90;;;;;;4982305;28;20001;-80
2022/09/07 04:04:48;;;;;;;;;;;17.10;99.90;;;;;;4968051;28;19930;-80
2022/09/07 04:07:14;;;;;;;;;;;17.20;99.90;;;;;;4967992;28;20401;-81
2022/09/07 04:09:39;;;;;;;;;;;17.10;99.90;;;;;;4967644;28;19945;-79
2022/09/07 04:12:05;;;;;;;;;;;17.10;99.90;;;;;;4982528;28;20028;-79
2022/09/07 04:14:30;;;;;;;;;;;17.10;99.90;;;;;;4967644;28;19981;-79
2022/09/07 04:16:56;;;;;;;;;;;17.10;99.90;;;;;;4967069;28;19933;-79
2022/09/07 04:19:21;;;;;;;;;;;17.10;99.90;;;;;;4968011;28;19930;-79
2022/09/07 04:21:47;;;;;;;;;;;17.10;99.90;;;;;;4967417;28;19992;-79
2022/09/07 04:24:13;;;;;;;;;;;17.10;99.90;;;;;;4967712;28;19954;-79
2022/09/07 04:26:39;;;;;;;;;;;17.10;99.90;;;;;;4967381;28;19926;-79
2022/09/07 04:29:05;;;;;;;;;;;17.20;99.90;;;;;;4966552;28;19928;-79
2022/09/07 04:31:34;;;;;;;;;;;17.20;99.90;;;;;;4967770;28;19926;-79
2022/09/07 04:34:00;;;;;;;;;;;17.10;99.90;;;;;;4967574;28;20350;-79
2022/09/07 04:36:25;;;;;;;;;;;17.20;99.90;;;;;;4985454;28;19926;-79
2022/09/07 04:38:55;;;;;;;;;;;17.20;99.90;;;;;;4986835;28;19929;-79
2022/09/07 04:41:21;;;;;;;;;;;17.20;99.90;;;;;;4986693;28;19926;-79
2022/09/07 04:43:47;;;;;;;;;;;17.20;99.90;;;;;;4986512;28;19973;-79
2022/09/07 04:46:20;;;;;;;;;;;17.20;99.90;;;;;;4986029;28;19926;-79
2022/09/07 04:48:46;;;;;;;;;;;17.20;99.90;;;;;;4986329;28;19926;-79
2022/09/07 04:51:12;;;;;;;;;;;17.20;99.90;;;;;;4986686;28;20431;-79
2022/09/07 04:53:37;;;;;;;;;;;17.20;99.90;;;;;;4983667;28;20057;-79
2022/09/07 04:56:03;;;;;;;;;;;17.20;99.90;;;;;;4971125;28;19925;-79
2022/09/07 04:58:29;;;;;;;;;;;17.20;99.90;;;;;;4983734;28;19934;-80
2022/09/07 05:00:59;;;;;;;;;;;17.20;99.90;;;;;;4986079;28;19933;-79
2022/09/07 05:03:25;;;;;;;;;;;17.20;99.90;;;;;;4969291;28;19926;-79
2022/09/07 05:05:50;;;;;;;;;;;17.20;99.90;;;;;;4986232;28;19936;-79
2022/09/07 05:08:16;;;;;;;;;;;17.20;99.90;;;;;;4986328;28;19977;-79
2022/09/07 05:10:49;;;;;;;;;;;17.20;99.90;;;;;;4986228;28;20386;-79
2022/09/07 05:13:14;;;;;;;;;;;17.20;99.90;;;;;;4985611;28;20280;-79
2022/09/07 05:15:40;;;;;;;;;;;17.20;99.90;;;;;;4976624;28;19926;-79
2022/09/07 05:18:08;;;;;;;;;;;17.20;99.90;;;;;;4978356;28;19926;-81
2022/09/07 05:20:33;;;;;;;;;;;17.20;99.90;;;;;;4968289;28;19926;-78
2022/09/07 05:22:59;;;;;;;;;;;17.10;99.90;;;;;;4980144;28;19929;-79
2022/09/07 05:25:28;;;;;;;;;;;17.10;99.90;;;;;;4974732;28;19981;-78
2022/09/07 05:27:54;;;;;;;;;;;17.20;99.90;;;;;;4966237;28;19959;-79
2022/09/07 05:30:20;;;;;;;;;;;17.20;99.90;;;;;;4970782;28;19926;-79
2022/09/07 05:32:45;;;;;;;;;;;17.10;99.90;;;;;;4977212;28;20341;-79
2022/09/07 05:35:11;;;;;;;;;;;17.10;99.90;;;;;;4982280;28;19928;-83
2022/09/07 05:37:37;;;;;;;;;;;17.20;99.90;;;;;;4985762;28;19980;-81
2022/09/07 05:40:03;;;;;;;;;;;17.20;99.90;;;;;;4987248;28;19932;-83
2022/09/07 05:42:29;;;;;;;;;;;17.20;99.90;;;;;;4984632;28;20356;-82
2022/09/07 05:44:54;;;;;;;;;;;17.20;99.90;;;;;;4980688;28;20412;-83
2022/09/07 05:47:20;;;;;;;;;;;17.20;99.90;;;;;;4987989;28;20035;-79
2022/09/07 05:49:45;;;;;;;;;;;17.20;99.90;;;;;;4974448;28;20436;-79
2022/09/07 05:52:11;;;;;;;;;;;17.30;99.90;;;;;;4969410;28;19965;-79
2022/09/07 05:54:36;;;;;;;;;;;17.20;99.90;;;;;;4970704;28;19933;-78
2022/09/07 05:57:02;;;;;;;;;;;17.30;99.90;;;;;;4983389;28;19979;-79
2022/09/07 05:59:27;;;;;;;;;;;17.30;99.90;;;;;;5003122;28;20319;-79
2022/09/07 06:01:53;;;;;;;;;;;17.30;99.90;;;;;;5003957;28;20005;-80
2022/09/07 06:04:18;;;;;;;;;;;17.40;99.90;;;;;;4980518;28;20347;-80
2022/09/07 06:06:44;;;;;;;;;;;17.40;99.90;;;;;;4953900;28;19926;-80
2022/09/07 06:09:11;;;;;;;;;;;17.40;99.90;;;;;;4964768;28;20317;-79
2022/09/07 06:11:37;;;;;;;;;;;17.40;99.90;;;;;;4964597;28;20451;-78
2022/09/07 06:14:02;;;;;;;;;;;17.40;99.90;;;;;;4964418;28;20120;-77
2022/09/07 06:16:28;;;;;;;;;;;17.40;99.90;;;;;;4962963;28;20238;-77
2022/09/07 06:18:54;;;;;;;;;;;17.40;99.90;;;;;;4963780;28;19930;-77
2022/09/07 06:21:20;;;;;;;;;;;17.40;99.90;;;;;;4964995;28;19926;-77
2022/09/07 06:23:46;;;;;;;;;;;17.40;99.90;;;;;;4975374;28;20278;-77
2022/09/07 06:26:12;;;;;;;;;;;17.50;99.90;;;;;;4984219;28;19933;-76
2022/09/07 06:28:39;;;;;;;;;;;17.50;99.90;;;;;;4980267;28;19926;-77
2022/09/07 06:31:06;;;;;;;;;;;17.50;99.90;;;;;;4967029;28;19930;-76
2022/09/07 06:33:32;;;;;;;;;;;17.50;99.90;;;;;;4965267;28;19980;-77
2022/09/07 06:36:00;;;;;;;;;;;17.50;99.90;;;;;;4964394;28;19970;-77
2022/09/07 06:38:30;;;;;;;;;;;17.60;99.90;;;;;;4946345;28;19926;-77
2022/09/07 06:41:19;;;;;;;;;;;17.60;99.90;;;;;;4963290;28;19958;-77
2022/09/07 06:43:44;;;;;;;;;;;17.60;99.90;;;;;;4954786;28;19926;-77
2022/09/07 06:46:10;;;;;;;;;;;17.60;99.90;;;;;;4963123;28;19926;-77
2022/09/07 06:48:36;;;;;;;;;;;17.70;99.90;;;;;;4963962;28;20017;-77
2022/09/07 06:51:01;;;;;;;;;;;17.60;99.90;;;;;;4964030;28;20021;-77
2022/09/07 06:53:31;;;;;;;;;;;17.60;99.90;;;;;;4964232;28;19932;-77
2022/09/07 06:55:57;;;;;;;;;;;17.60;99.90;;;;;;4962847;28;19934;-77
2022/09/07 06:58:24;;;;;;;;;;;17.60;99.90;;;;;;4978601;28;20440;-77
2022/09/07 07:00:50;;;;;;;;;;;17.60;99.90;;;;;;4962365;28;19926;-77
2022/09/07 07:03:15;;;;;;;;;;;17.60;99.90;;;;;;4963987;28;19933;-77
2022/09/07 07:05:42;;;;;;;;;;;17.60;99.90;;;;;;4963553;28;19937;-77
2022/09/07 07:08:07;;;;;;;;;;;17.50;99.90;;;;;;4963819;28;19980;-77
2022/09/07 07:10:36;;;;;;;;;;;17.60;99.90;;;;;;4961941;28;20457;-77
2022/09/07 07:13:02;;;;;;;;;;;17.50;99.90;;;;;;4963608;28;19926;-77
2022/09/07 07:15:28;;;;;;;;;;;17.60;99.90;;;;;;4962795;28;19932;-78
2022/09/07 07:17:54;;;;;;;;;;;17.60;99.90;;;;;;4963698;28;19972;-77
2022/09/07 07:20:20;;;;;;;;;;;17.70;99.90;;;;;;4963520;28;20021;-77
2022/09/07 07:22:49;;;;;;;;;;;17.70;99.90;;;;;;4963263;28;19926;-77
2022/09/07 07:25:15;;;;;;;;;;;17.70;99.90;;;;;;4963430;28;19933;-77
2022/09/07 07:27:41;;;;;;;;;;;17.80;99.90;;;;;;4963169;28;19922;-77
2022/09/07 07:30:06;;;;;;;;;;;17.80;99.90;;;;;;4963017;28;19953;-77
2022/09/07 07:32:32;;;;;;;;;;;17.70;99.90;;;;;;4961856;28;19933;-77
2022/09/07 07:37:41;;;;;;;;;;;17.80;99.90;;;;;;4980894;28;19936;-77
2022/09/07 07:40:08;;;;;;;;;;;17.80;99.90;;;;;;4982920;28;19926;-77
2022/09/07 07:42:34;;;;;;;;;;;17.70;99.90;;;;;;4982259;28;19973;-77
2022/09/07 07:45:00;;;;;;;;;;;17.80;99.90;;;;;;4982313;28;20359;-77
2022/09/07 07:47:26;;;;;;;;;;;17.80;99.90;;;;;;4982294;28;19926;-77
2022/09/07 07:49:52;;;;;;;;;;;17.90;99.90;;;;;;4982398;28;19936;-77
2022/09/07 07:52:17;;;;;;;;;;;18.00;99.90;;;;;;4982218;28;20281;-77
2022/09/07 07:54:43;;;;;;;;;;;18.00;99.90;;;;;;4982291;28;19929;-77
2022/09/07 07:57:08;;;;;;;;;;;18.10;99.90;;;;;;4980949;28;20384;-77
2022/09/07 07:59:34;;;;;;;;;;;18.10;99.90;;;;;;4982134;28;19932;-77
2022/09/07 08:02:03;;;;;;;;;;;18.10;99.90;;;;;;4981663;28;19926;-77
2022/09/07 08:04:32;;;;;;;;;;;18.20;99.90;;;;;;4982253;28;20236;-78
2022/09/07 08:06:57;;;;;;;;;;;18.20;99.90;;;;;;4981286;28;19932;-77
2022/09/07 08:09:23;;;;;;;;;;;18.30;99.90;;;;;;4982195;28;20299;-77
2022/09/07 08:11:48;;;;;;;;;;;18.30;99.90;;;;;;4981774;28;19934;-77
2022/09/07 08:14:15;;;;;;;;;;;18.40;99.90;;;;;;4982485;28;20021;-77
2022/09/07 08:16:43;;;;;;;;;;;18.40;99.90;;;;;;4980526;28;19926;-77
2022/09/07 08:19:09;;;;;;;;;;;18.50;99.90;;;;;;4982412;28;19925;-77
2022/09/07 08:21:34;;;;;;;;;;;18.50;99.90;;;;;;4981607;28;20016;-77
2022/09/07 08:24:00;;;;;;;;;;;18.50;99.90;;;;;;4982156;28;19964;-77
2022/09/07 08:26:26;;;;;;;;;;;18.50;99.90;;;;;;4982476;28;19932;-77
2022/09/07 08:28:51;;;;;;;;;;;18.50;99.90;;;;;;4981876;28;19926;-77
2022/09/07 08:31:17;;;;;;;;;;;18.60;99.90;;;;;;4981165;28;20277;-77
2022/09/07 08:33:43;;;;;;;;;;;18.50;99.90;;;;;;4982088;28;19930;-77
2022/09/07 08:36:13;;;;;;;;;;;18.60;99.90;;;;;;4963988;28;19992;-77
2022/09/07 08:38:38;;;;;;;;;;;18.70;99.90;;;;;;4962693;28;19949;-77
2022/09/07 08:41:22;;;;;;;;;;;18.80;99.90;;;;;;4962521;28;19926;-77
2022/09/07 08:44:08;;;;;;;;;;;18.80;99.90;;;;;;4964980;28;19930;-77
2022/09/07 08:46:39;;;;;;;;;;;18.80;99.90;;;;;;4965252;28;19945;-77
2022/09/07 08:49:09;;;;;;;;;;;18.90;99.90;;;;;;4966053;28;20426;-77
2022/09/07 08:51:42;;;;;;;;;;;18.90;99.90;;;;;;4966119;28;19926;-77
2022/09/07 08:54:09;;;;;;;;;;;18.90;99.90;;;;;;4966495;28;19973;-77
2022/09/07 08:56:37;;;;;;;;;;;19.00;99.90;;;;;;4965648;28;19933;-77
2022/09/07 08:59:12;;;;;;;;;;;19.00;99.90;;;;;;4966308;28;20497;-76
2022/09/07 09:01:40;;;;;;;;;;;19.00;99.90;;;;;;4965067;28;20308;-77
2022/09/07 09:04:11;;;;;;;;;;;19.00;99.90;;;;;;4966170;28;20439;-77
2022/09/07 09:06:37;;;;;;;;;;;19.00;99.90;;;;;;4965459;28;19929;-77
2022/09/07 09:09:05;;;;;;;;;;;19.00;99.90;;;;;;4965878;28;20455;-77
2022/09/07 09:11:36;;;;;;;;;;;19.10;99.90;;;;;;4965277;28;20385;-77
2022/09/07 09:14:27;;;;;;;;;;;19.10;99.90;;;;;;4965608;28;19926;-77
2022/09/07 09:17:05;;;;;;;;;;;19.20;99.90;;;;;;4964205;28;19969;-77
2022/09/07 09:19:51;;;;;;;;;;;19.20;99.90;;;;;;4965715;28;19926;-77
2022/09/07 09:22:18;;;;;;;;;;;19.20;99.90;;;;;;4965194;28;20331;-77
2022/09/07 09:24:46;;;;;;;;;;;19.20;99.90;;;;;;4965459;28;19980;-76
2022/09/07 09:27:11;;;;;;;;;;;19.20;99.90;;;;;;4963972;28;19931;-77
2022/09/07 09:29:37;;;;;;;;;;;19.20;99.90;;;;;;4965259;28;20291;-76
2022/09/07 09:32:21;;;;;;;;;;;19.20;99.90;;;;;;4964699;28;20096;-77
2022/09/07 09:34:59;;;;;;;;;;;19.20;99.90;;;;;;4969601;28;19940;-76
2022/09/07 09:37:31;;;;;;;;;;;19.30;99.90;;;;;;4985063;28;19926;-76
2022/09/07 09:39:57;;;;;;;;;;;19.30;99.90;;;;;;4985355;28;20320;-77
2022/09/07 09:42:23;;;;;;;;;;;19.30;99.90;;;;;;4984522;28;19926;-76
2022/09/07 09:44:49;;;;;;;;;;;19.40;99.90;;;;;;4984686;28;19934;-76
2022/09/07 09:47:32;;;;;;;;;;;19.40;99.90;;;;;;4983750;28;19965;-76
2022/09/07 09:50:00;;;;;;;;;;;19.40;99.90;;;;;;4985220;28;20343;-77
2022/09/07 09:52:27;;;;;;;;;;;19.40;99.90;;;;;;4985038;28;19932;-76
2022/09/07 09:54:55;;;;;;;;;;;19.40;99.90;;;;;;4982184;28;20004;-76
2022/09/07 09:57:39;;;;;;;;;;;19.40;99.90;;;;;;4984203;28;19932;-76
2022/09/07 10:00:05;;;;;;;;;;;19.40;99.90;;;;;;4966320;28;20304;-77
2022/09/07 10:02:32;;;;;;;;;;;19.50;99.90;;;;;;4984264;28;19929;-77
2022/09/07 10:04:57;;;;;;;;;;;19.50;99.90;;;;;;4984813;28;19925;-76
2022/09/07 10:07:26;;;;;;;;;;;19.50;99.90;;;;;;4982587;28;19929;-76
2022/09/07 10:09:54;;;;;;;;;;;19.50;99.90;;;;;;4984005;28;19937;-77
2022/09/07 10:12:24;;;;;;;;;;;19.50;99.90;;;;;;4984031;28;20300;-76
2022/09/07 10:14:55;;;;;;;;;;;19.50;99.90;;;;;;4982588;28;19926;-76
2022/09/07 10:17:20;;;;;;;;;;;19.50;99.90;;;;;;4963107;28;20474;-76
2022/09/07 10:19:48;;;;;;;;;;;19.50;99.90;;;;;;4981407;28;19934;-77
2022/09/07 10:22:22;;;;;;;;;;;19.60;99.90;;;;;;4972081;28;19926;-76
2022/09/07 10:24:49;;;;;;;;;;;19.60;99.90;;;;;;4969524;28;19956;-77
2022/09/07 10:27:18;;;;;;;;;;;19.70;99.90;;;;;;4965356;28;19934;-77
2022/09/07 10:29:44;;;;;;;;;;;19.70;99.90;;;;;;4964680;28;19926;-78
2022/09/07 10:32:18;;;;;;;;;;;19.70;99.90;;;;;;4967672;28;19949;-78
2022/09/07 10:34:51;;;;;;;;;;;19.70;99.90;;;;;;4978946;28;19926;-78
2022/09/07 10:37:24;;;;;;;;;;;19.80;99.90;;;;;;4967943;28;19937;-78
2022/09/07 10:39:56;;;;;;;;;;;19.70;99.90;;;;;;4983839;28;19926;-77
2022/09/07 10:42:27;;;;;;;;;;;19.80;99.90;;;;;;4964113;28;19926;-78
2022/09/07 10:45:11;;;;;;;;;;;19.80;99.90;;;;;;4964398;28;19926;-78
2022/09/07 10:47:42;;;;;;;;;;;19.80;99.90;;;;;;4968714;28;19934;-78
2022/09/07 10:50:10;;;;;;;;;;;19.80;99.90;;;;;;4981641;28;20423;-78
2022/09/07 10:52:39;;;;;;;;;;;19.80;99.90;;;;;;4984189;28;20452;-78
2022/09/07 10:55:25;;;;;;;;;;;19.80;99.90;;;;;;4984564;28;19926;-78
2022/09/07 10:57:53;;;;;;;;;;;19.90;99.90;;;;;;4975734;28;20072;-78
2022/09/07 11:00:19;;;;;;;;;;;19.90;99.90;;;;;;4970599;28;19984;-78
2022/09/07 11:02:57;;;;;;;;;;;19.90;99.90;;;;;;4983354;28;19930;-77
2022/09/07 11:05:27;;;;;;;;;;;20.00;99.90;;;;;;4969248;28;20431;-77
2022/09/07 11:08:11;;;;;;;;;;;20.00;99.90;;;;;;4976725;28;19937;-77
2022/09/07 11:10:44;;;;;;;;;;;20.00;99.90;;;;;;4983875;28;20608;-85
2022/09/07 11:13:12;;;;;;;;;;;20.00;99.90;;;;;;4983667;28;20305;-77
2022/09/07 11:15:43;;;;;;;;;;;20.00;99.90;;;;;;4980898;28;19925;-77
2022/09/07 11:18:11;;;;;;;;;;;20.00;99.90;;;;;;4970539;28;20137;-77
2022/09/07 11:20:41;;;;;;;;;;;20.10;99.90;;;;;;4963317;28;20182;-77
2022/09/07 11:23:19;;;;;;;;;;;20.10;99.90;;;;;;4973157;28;20039;-77
2022/09/07 11:25:56;;;;;;;;;;;20.20;99.90;;;;;;4963430;28;19926;-77
2022/09/07 11:28:25;;;;;;;;;;;20.30;99.90;;;;;;4963350;28;19930;-77
2022/09/07 11:30:56;;;;;;;;;;;20.30;99.90;;;;;;4962776;28;19981;-77
2022/09/07 11:33:24;;;;;;;;;;;20.20;99.90;;;;;;4963899;28;19933;-77
2022/09/07 11:36:01;;;;;;;;;;;20.20;99.90;;;;;;4968018;28;19926;-77
2022/09/07 11:38:34;;;;;;;;;;;20.10;99.90;;;;;;4964839;28;19927;-77
2022/09/07 11:41:05;;;;;;;;;;;20.20;99.90;;;;;;4962066;28;19926;-77
2022/09/07 11:43:33;;;;;;;;;;;20.20;99.90;;;;;;4963149;28;19954;-77
2022/09/07 11:46:05;;;;;;;;;;;20.30;99.90;;;;;;4962166;28;20226;-78
2022/09/07 11:48:36;;;;;;;;;;;20.30;99.90;;;;;;4962761;28;19973;-78
2022/09/07 11:51:04;;;;;;;;;;;20.30;99.90;;;;;;4972416;28;20324;-75
2022/09/07 11:53:38;;;;;;;;;;;20.30;99.90;;;;;;4982771;28;20016;-75
2022/09/07 11:56:30;;;;;;;;;;;20.30;99.90;;;;;;4982131;28;20380;-74
2022/09/07 11:59:08;;;;;;;;;;;20.30;99.90;;;;;;4989102;28;19972;-75
2022/09/07 12:01:42;;;;;;;;;;;20.30;99.90;;;;;;4981383;28;19925;-74
2022/09/07 12:04:08;;;;;;;;;;;20.30;99.90;;;;;;4966884;28;20408;-76
2022/09/07 12:06:36;;;;;;;;;;;20.30;99.90;;;;;;4978348;28;19926;-76
2022/09/07 12:09:09;;;;;;;;;;;20.30;99.90;;;;;;4981688;28;20068;-79
2022/09/07 12:11:46;;;;;;;;;;;20.40;99.90;;;;;;4981433;28;19926;-80
2022/09/07 12:14:20;;;;;;;;;;;20.40;99.90;;;;;;4982696;28;19925;-79
2022/09/07 12:16:52;;;;;;;;;;;20.30;99.90;;;;;;4961321;28;19933;-80
2022/09/07 12:19:23;;;;;;;;;;;20.30;99.90;;;;;;4966501;28;19926;-80
2022/09/07 12:21:51;;;;;;;;;;;20.30;99.90;;;;;;4966488;28;19977;-79
2022/09/07 12:24:32;;;;;;;;;;;20.40;99.90;;;;;;4981657;28;20323;-79
2022/09/07 12:27:04;;;;;;;;;;;20.40;99.90;;;;;;4979063;28;19926;-79
2022/09/07 12:29:30;;;;;;;;;;;20.40;99.90;;;;;;4982969;28;20384;-75
2022/09/07 12:31:57;;;;;;;;;;;20.40;99.90;;;;;;4985644;28;19926;-78
2022/09/07 12:34:29;;;;;;;;;;;20.40;99.90;;;;;;4970337;28;19933;-78
2022/09/07 12:36:54;;;;;;;;;;;20.40;99.90;;;;;;4965350;28;20085;-77
2022/09/07 12:39:27;;;;;;;;;;;20.40;99.90;;;;;;4963901;28;19934;-78
2022/09/07 12:42:05;;;;;;;;;;;20.40;99.90;;;;;;4964781;28;20013;-78
2022/09/07 12:44:33;;;;;;;;;;;20.40;99.90;;;;;;4964134;28;19934;-78
2022/09/07 12:47:00;;;;;;;;;;;20.50;99.90;;;;;;4960926;28;19922;-78
2022/09/07 12:49:47;;;;;;;;;;;20.60;99.90;;;;;;4964231;28;20312;-74
2022/09/07 12:52:31;;;;;;;;;;;20.60;99.90;;;;;;4964251;28;19926;-78
2022/09/07 12:55:03;;;;;;;;;;;20.70;99.90;;;;;;4960857;28;19926;-78
2022/09/07 12:57:32;;;;;;;;;;;20.70;99.90;;;;;;4964299;28;20475;-79
2022/09/07 12:59:58;;;;;;;;;;;20.70;99.90;;;;;;4961732;28;19941;-79
2022/09/07 13:02:27;;;;;;;;;;;20.70;99.90;;;;;;4962623;28;20363;-79
2022/09/07 13:05:04;;;;;;;;;;;20.70;99.90;;;;;;4963855;28;19977;-78
2022/09/07 13:07:38;;;;;;;;;;;20.80;99.90;;;;;;4962374;28;19934;-79
2022/09/07 13:10:15;;;;;;;;;;;20.90;99.90;;;;;;4963947;28;19941;-79
2022/09/07 13:12:45;;;;;;;;;;;20.90;99.90;;;;;;4965233;28;19926;-78
2022/09/07 13:15:31;;;;;;;;;;;21.00;99.90;;;;;;4956885;28;19933;-79
2022/09/07 13:17:57;;;;;;;;;;;21.10;99.90;;;;;;4964544;28;19930;-79
2022/09/07 13:20:29;;;;;;;;;;;21.10;99.90;;;;;;4961539;28;20447;-79
2022/09/07 13:23:14;;;;;;;;;;;21.10;99.90;;;;;;4965226;28;19926;-79
2022/09/07 13:25:41;;;;;;;;;;;21.10;99.90;;;;;;4956114;28;21546;-79
2022/09/07 13:28:19;;;;;;;;;;;21.10;99.90;;;;;;4965370;28;19981;-79
2022/09/07 13:31:03;;;;;;;;;;;21.10;99.90;;;;;;4965540;28;19926;-79
2022/09/07 13:33:28;;;;;;;;;;;21.10;99.90;;;;;;4974748;28;19925;-80
2022/09/07 13:35:55;;;;;;;;;;;21.10;99.90;;;;;;4969812;28;19933;-78
2022/09/07 13:38:21;;;;;;;;;;;21.10;99.90;;;;;;4965814;28;20040;-82
2022/09/07 13:40:49;;;;;;;;;;;21.20;99.90;;;;;;4966146;28;20005;-80
2022/09/07 13:43:19;;;;;;;;;;;21.20;99.90;;;;;;4973357;28;19926;-81
2022/09/07 13:45:53;;;;;;;;;;;21.20;99.90;;;;;;4978221;28;20384;-85
2022/09/07 13:48:35;;;;;;;;;;;21.20;99.90;;;;;;4968465;28;19937;-84
2022/09/07 13:51:19;;;;;;;;;;;21.30;99.90;;;;;;4972348;28;19933;-85
2022/09/07 13:53:54;;;;;;;;;;;21.30;99.90;;;;;;4980263;28;19973;-86
2022/09/07 13:56:24;;;;;;;;;;;21.30;99.90;;;;;;4977930;28;19926;-80
2022/09/07 13:58:51;;;;;;;;;;;21.40;99.90;;;;;;4981578;28;20293;-81
2022/09/07 14:01:24;;;;;;;;;;;21.40;99.90;;;;;;4973044;28;20136;-81
2022/09/07 14:04:08;;;;;;;;;;;21.40;99.90;;;;;;4973100;28;19926;-81
2022/09/07 14:06:37;;;;;;;;;;;21.50;99.90;;;;;;4970563;28;20013;-81
2022/09/07 14:09:05;;;;;;;;;;;21.50;99.90;;;;;;4985763;28;19926;-81
2022/09/07 14:11:39;;;;;;;;;;;21.50;99.90;;;;;;4977984;28;19937;-81
2022/09/07 14:14:13;;;;;;;;;;;21.50;99.90;;;;;;4973729;28;19926;-81
2022/09/07 14:16:40;;;;;;;;;;;21.40;99.90;;;;;;4981542;28;19949;-81
2022/09/07 14:19:25;;;;;;;;;;;21.40;99.90;;;;;;4971180;28;19927;-82
2022/09/07 14:22:20;;;;;;;;;;;21.40;99.90;;;;;;4994163;28;19984;-82
2022/09/07 14:24:46;;;;;;;;;;;21.40;99.90;;;;;;4968971;28;19926;-82
2022/09/07 14:27:34;;;;;;;;;;;21.40;99.90;;;;;;4977426;28;20529;-78
2022/09/07 14:30:36;;;;;;;;;;;21.40;99.90;;;;;;4970746;28;19926;-78
2022/09/07 14:33:03;;;;;;;;;;;21.40;99.90;;;;;;4942514;28;19926;-79